Nearby METAR Reports

 

KSNK - Snyder/Winston, Texas, USA
Distance from station: SSE 25mi, 41km
Updated: Fri, 14-May-2021 2:22am CDT
Clear
Clear
 Wind from SE
Wind: SE 7 mph , 11 km/h
Temperature: 55°F , 13°C
Dew Point: 52°F , 11°C
Humidity: 88%
Barometer: 30.21 inHg , 1023 hPa
Clouds: Clear
Visibility: 10 miles , 16 km
2021/05/14 07:22 KSNK 140722Z AUTO 13006KT 10SM CLR 13/11 A3021 RMK AO2
KSWW - Sweetwater, Texas, USA
Distance from station: SE 56mi, 90km
Updated: Fri, 14-May-2021 2:15am CDT
Clear
Clear
 Wind from ESE
Wind: ESE 9 mph , 15 km/h
Temperature: 59°F , 15°C
Dew Point: 54°F , 12°C
Humidity: 82%
Barometer: 30.23 inHg , 1023.7 hPa
Clouds: Clear
Visibility: 10 miles , 16 km
2021/05/14 07:15 KSWW 140715Z AUTO 12008KT 10SM CLR 15/12 A3023 RMK AO2 T01480117
 
KLBB - Lubbock, Texas, USA
Distance from station: NW 59mi, 94km
Updated: Fri, 14-May-2021 1:53am CDT
Clear
Clear
 Wind from SSE
Wind: SSE 17 mph , 28 km/h
Temperature: 55°F , 13°C
Dew Point: 48°F , 9°C
Humidity: 77%
Barometer: 30.18 inHg , 1022 hPa
Clouds: Clear
Visibility: 10 miles , 16 km
2021/05/14 06:53 KLBB 140653Z 15015KT 10SM CLR 13/09 A3018 RMK AO2 SLP187 T01330094
KPVW - Plainview, Texas, USA
Distance from station: NNW 85mi, 137km
Updated: Fri, 14-May-2021 2:15am CDT
Clear
Clear
 Wind from SSE
Wind: SSE 10 mph , 17 km/h
Temperature: 52°F , 11°C
Dew Point: 48°F , 9°C
Humidity: 88%
Barometer: 30.20 inHg , 1022.7 hPa
Clouds: Clear
Visibility: 10 miles , 16 km
2021/05/14 07:15 KPVW 140715Z AUTO 15009KT 10SM CLR 11/09 A3020 RMK AO2 T01110090
 
KDYS - Dyess Afb/Abilen, Texas, USA
Distance from station: ESE 88mi, 141km
Updated: Fri, 14-May-2021 1:56am CDT
Clear
Clear
 Wind from ESE
Wind: ESE 9 mph , 15 km/h
Temperature: 59°F , 15°C
Dew Point: 52°F , 11°C
Humidity: 77%
Barometer: 30.22 inHg , 1023.4 hPa
Clouds: Clear
Visibility: 10 miles , 16 km
2021/05/14 06:56 KDYS 140656Z AUTO 12008KT 10SM CLR 15/11 A3022 RMK AO2 SLP212 T01470105
KGNC - Seminole, Texas, USA
Distance from station: WSW 89mi, 144km
Updated: Fri, 14-May-2021 2:15am CDT
Clear
Clear
 Wind from SE
Wind: SE 8 mph , 13 km/h
Temperature: 61°F , 16°C
Dew Point: 52°F , 11°C
Humidity: 72%
Barometer: 30.21 inHg , 1023 hPa
Clouds: Clear
Visibility: 10 miles , 16 km
2021/05/14 07:15 KGNC 140715Z AUTO 13007KT 10SM CLR 16/11 A3021 RMK AO2 T01550112
 
KE11 - Andrews, Texas, USA
Distance from station: WSW 93mi, 149km
Updated: Fri, 14-May-2021 2:15am CDT
Clear
Clear
 Wind from SE
Wind: SE 15 mph , 24 km/h
Temperature: 61°F , 16°C
Dew Point: 52°F , 11°C
Humidity: 72%
Barometer: 30.17 inHg , 1021.7 hPa
Clouds: Clear
Visibility: 10 miles , 16 km
2021/05/14 07:15 KE11 140715Z AUTO 13013KT 10SM CLR 16/11 A3017 RMK AO2 T01600113
KABI - Abilene, Texas, USA
Distance from station: ESE 96mi, 154km
Updated: Fri, 14-May-2021 1:52am CDT
Clear
Clear
 Wind from SE
Wind: SE 8 mph , 13 km/h
Temperature: 57°F , 14°C
Dew Point: 54°F , 12°C
Humidity: 88%
Barometer: 30.22 inHg , 1023.4 hPa
Clouds: Clear
Visibility: 10 miles , 16 km
2021/05/14 06:52 KABI 140652Z 14007KT 10SM CLR 14/12 A3022 RMK AO2 SLP220 T01390122
 
KMAF - Midland, Texas, USA
Distance from station: SW 96mi, 154km
Updated: Fri, 14-May-2021 1:53am CDT
Clear
Clear
 Wind from SE
Wind: SE 14 mph , 22 km/h
Temperature: 61°F , 16°C
Dew Point: 54°F , 12°C
Humidity: 77%
Barometer: 30.16 inHg , 1021.3 hPa
Clouds: Clear
Visibility: 10 miles , 16 km
2021/05/14 06:53 KMAF 140653Z 14012KT 10SM CLR 16/12 A3016 RMK AO2 SLP181 T01610117
KCDS - Childress, Texas, USA
Distance from station: NNE 110mi, 177km
Updated: Fri, 14-May-2021 1:53am CDT
Clear
Clear
 Wind from SSE
Wind: SSE 12 mph , 19 km/h
Temperature: 55°F , 13°C
Dew Point: 50°F , 10°C
Humidity: 82%
Barometer: 30.21 inHg , 1023 hPa
Clouds: Clear
Visibility: 10 miles , 16 km
2021/05/14 06:53 KCDS 140653Z AUTO 16010KT 10SM CLR 13/10 A3021 RMK AO2 SLP214 T01330100
 
KSJT - San Angelo, Texas, USA
Distance from station: SSE 121mi, 194km
Updated: Fri, 14-May-2021 1:51am CDT
Few Clouds
Few Clouds
 Wind from E
Wind: E 7 mph , 11 km/h
Temperature: 59°F , 15°C
Dew Point: 54°F , 12°C
Humidity: 82%
Barometer: 30.19 inHg , 1022.4 hPa
Clouds: Few Clouds
Visibility: 10 miles , 16 km
Cloud details: Few Clouds 3600 ft
2021/05/14 06:51 KSJT 140651Z AUTO 10006KT 10SM FEW036 15/12 A3019 RMK AO2 SLP213 T01500122 $
KHOB - Hobbs/Lea Co., New Mexico, USA
Distance from station: WSW 122mi, 196km
Updated: Fri, 14-May-2021 2:15am CDT
Clear
Clear
 Wind from SE
Wind: SE 10 mph , 17 km/h
Temperature: 59°F , 15°C
Dew Point: 50°F , 10°C
Humidity: 72%
Barometer: 30.16 inHg , 1021.3 hPa
Clouds: Clear
Visibility: 10 miles , 16 km
2021/05/14 07:15 KHOB 140715Z AUTO 13009KT 10SM CLR 15/10 A3016 RMK AO2
 
KCOM - Coleman Muni, Texas, USA
Distance from station: SE 131mi, 212km
Updated: Fri, 14-May-2021 2:15am CDT
Overcast
Overcast
 Wind from ESE
Wind: ESE 3 mph , 6 km/h
Temperature: 59°F , 15°C
Dew Point: 55°F , 13°C
Humidity: 88%
Barometer: 30.23 inHg , 1023.7 hPa
Clouds: Overcast
Visibility: 10 miles , 16 km
Cloud details: Overcast 3500 ft
2021/05/14 07:15 KCOM 140715Z AUTO 12003KT 10SM OVC035 15/13 A3023 RMK AO2 T01460128
KBKD - Breckenridge, Texas, USA
Distance from station: E 134mi, 215km
Updated: Fri, 14-May-2021 2:15am CDT
Clear
Clear
 Wind from SE
Wind: SE 6 mph , 9 km/h
Temperature: 61°F , 16°C
Dew Point: 54°F , 12°C
Humidity: 77%
Barometer: 30.22 inHg , 1023.4 hPa
Clouds: Clear
Visibility: 7 miles , 11 km
2021/05/14 07:15 KBKD 140715Z AUTO 13005KT 7SM CLR 16/12 A3022 RMK AO2 T01600118
 
KF05 - Vernon Wilbarger, Texas, USA
Distance from station: NE 137mi, 220km
Updated: Fri, 14-May-2021 2:15am CDT
Clear
Clear
 Wind from SE
Wind: SE 6 mph , 9 km/h
Temperature: 57°F , 14°C
Dew Point: 55°F , 13°C
Humidity: 94%
Barometer: 30.22 inHg , 1023.4 hPa
Clouds: Clear
Visibility: 10 miles , 16 km
2021/05/14 07:15 KF05 140715Z AUTO 14005KT 10SM CLR 14/13 A3022 RMK AO2 T01380126